METAR Data
IDs: Format: Raw Decoded Include TAF

Data at: 0515 UTC 26 Sep 2018

KFMM 260455Z AUTO 05005KT 10SM CLR 06/M03 A3033 RMK AO2 T00551027
KFMM 260435Z AUTO 07004KT 10SM CLR 07/M03 A3033 RMK AO2 T00731030
KFMM 260415Z AUTO 08005KT 10SM CLR 07/M02 A3032 RMK AO2 T00651025
KFMM 260355Z AUTO 09006KT 10SM CLR 07/M02 A3032 RMK AO2 T00651025
KFMM 260335Z AUTO 11005KT 10SM CLR 08/M02 A3032 RMK AO2 T00801024
KFMM 260315Z AUTO 10005KT 10SM CLR 08/M03 A3032 RMK AO2 T00811028
KFMM 260255Z AUTO 10004KT 10SM CLR 09/M03 A3031 RMK AO2 T00881032
KFMM 260235Z AUTO 07003KT 10SM CLR 08/M03 A3030 RMK AO2 T00781027
KFMM 260215Z AUTO 09004KT 10SM CLR 10/M03 A3030 RMK AO2 T00951030
KFMM 260155Z AUTO 09004KT 10SM CLR 09/M02 A3029 RMK AO2 T00921025
KFMM 260135Z AUTO 08004KT 10SM CLR 09/M02 A3028 RMK AO2 T00941017
KFMM 260115Z AUTO 07005KT 10SM CLR 11/M02 A3026 RMK AO2 T01051021
KFMM 260055Z AUTO 06004KT 10SM CLR 10/M01 A3025 RMK AO2 T01031014
KFMM 260035Z AUTO 05006KT 10SM CLR 13/M02 A3024 RMK AO2 T01281025
KFMM 260015Z AUTO 05008KT 10SM CLR 15/M03 A3024 RMK AO2 T01471026
KFMM 252355Z AUTO 05009KT 10SM CLR 16/M03 A3023 RMK AO2 T01611034 10188 20160
KFMM 252335Z AUTO 03009KT 10SM CLR 17/M04 A3022 RMK AO2 T01681039
KFMM 252315Z AUTO 04012G16KT 10SM CLR 17/M04 A3022 RMK AO2 T01721041
KFMM 252255Z AUTO 36009KT 10SM CLR 18/M04 A3022 RMK AO2 T01771038
KFMM 252235Z AUTO 06011G17KT 10SM CLR 18/M04 A3021 RMK AO2 T01781041
KFMM 252215Z AUTO 05014KT 10SM CLR 18/M04 A3021 RMK AO2 T01811042
KFMM 252155Z AUTO 04011G16KT 10SM CLR 18/M04 A3021 RMK AO2 T01811044
KFMM 252135Z AUTO 04011KT 10SM CLR 18/M04 A3021 RMK AO2 T01841041
KFMM 252115Z AUTO 01014G17KT 10SM CLR 18/M05 A3022 RMK AO2 T01841046
KFMM 252055Z AUTO 35006G17KT 10SM CLR 19/M05 A3022 RMK AO2 T01881048
KFMM 252035Z AUTO 02010G14KT 10SM CLR 19/M05 A3021 RMK AO2 T01851047
KFMM 252015Z AUTO 01005G18KT 10SM CLR 18/M05 A3022 RMK AO2 T01841046
KFMM 251955Z AUTO 01014G19KT 10SM CLR 19/M04 A3022 RMK AO2 T01851041
KFMM 251935Z AUTO 34009G18KT 300V360 10SM CLR 18/M04 A3023 RMK AO2 T01811037
KFMM 251915Z AUTO 33012G21KT 10SM CLR 18/M03 A3024 RMK AO2 T01751034
KFMM 251855Z AUTO 35016G23KT 10SM CLR 17/M03 A3024 RMK AO2 T01741026
KFMM 251835Z AUTO 36014G22KT 10SM CLR 17/M02 A3025 RMK AO2 T01691024
KFMM 251815Z AUTO 35012G22KT 10SM CLR 16/M02 A3026 RMK AO2 T01631025
KFMM 251755Z AUTO 34013G20KT 10SM CLR 16/M03 A3026 RMK AO2 T01611030 10161 20032
KFMM 251735Z AUTO 35012G17KT 10SM CLR 16/M02 A3026 RMK AO2 T01571020
KFMM 251715Z AUTO 01011G17KT 10SM CLR 15/M02 A3027 RMK AO2 T01521016
KFMM 251655Z AUTO 35012G16KT 10SM CLR 15/M01 A3027 RMK AO2 T01451011
KFMM 251635Z AUTO 36008G15KT 10SM CLR 14/00 A3028 RMK AO2 T01431001
KFMM 251615Z AUTO 35011G15KT 10SM CLR 13/00 A3028 RMK AO2 T01340000
KFMM 251555Z AUTO 34013G16KT 10SM CLR 13/00 A3028 RMK AO2 T01280001
KFMM 251535Z AUTO 35012G17KT 10SM CLR 12/00 A3028 RMK AO2 T01180003
KFMM 251515Z AUTO 36015G19KT 10SM CLR 11/01 A3027 RMK AO2 T01060006
KFMM 251455Z AUTO 36015G20KT 10SM CLR 10/01 A3027 RMK AO2 T00980009
KFMM 251435Z AUTO 36010KT 10SM CLR 09/01 A3028 RMK AO2 T00880013
KFMM 251415Z AUTO 36008KT 10SM CLR 08/02 A3028 RMK AO2 T00780015
KFMM 251355Z AUTO 35005KT 10SM CLR 07/02 A3027 RMK AO2 T00650016
KFMM 251335Z AUTO 00000KT 10SM CLR 05/01 A3026 RMK AO2 T00460013
KFMM 251315Z AUTO 00000KT 10SM CLR 04/01 A3025 RMK AO2 T00350008
KFMM 251255Z AUTO 00000KT 10SM CLR 03/00 A3024 RMK AO2 T00340003
KFMM 251235Z AUTO 04004KT 10SM CLR 04/01 A3023 RMK AO2 T00380006
KFMM 251215Z AUTO 03006KT 10SM CLR 05/01 A3022 RMK AO2 T00480010
KFMM 251155Z AUTO 02007KT 10SM CLR 05/01 A3020 RMK AO2 T00460012 10118 20046
KFMM 251135Z AUTO 01011KT 10SM CLR 05/02 A3018 RMK AO2 T00520015
KFMM 251115Z AUTO 02016G19KT 10SM CLR 06/02 A3016 RMK AO2 T00590015
KFMM 251055Z AUTO 02016G19KT 10SM CLR 07/02 A3016 RMK AO2 T00650015
KFMM 251035Z AUTO 01018G28KT 10SM CLR 07/02 A3016 RMK AO2 T00700015
KFMM 251015Z AUTO 36021G29KT 10SM CLR 07/01 A3015 RMK AO2 T00740013
KFMM 250955Z AUTO 36025G37KT 10SM CLR 08/01 A3013 RMK AO2 T00780012
KFMM 250935Z AUTO 36028G37KT 10SM CLR 08/02 A3011 RMK AO2 T00820017
KFMM 250915Z AUTO 35030G37KT 10SM CLR 09/02 A3010 RMK AO2 T00850023
KFMM 250855Z AUTO 36031G39KT 10SM SCT015 09/04 A3008 RMK AO2 T00870037
KFMM 250835Z AUTO 36028G41KT 10SM SCT015 10/05 A3006 RMK AO2 T00980049
KFMM 250815Z AUTO 35026G32KT 10SM CLR 11/07 A3004 RMK AO2 T01110065
KFMM 250735Z AUTO 05005KT 10SM SCT090 10/07 A2997 RMK AO2 T01000070
KFMM 250715Z AUTO 02007KT 10SM SCT085 SCT120 11/07 A2996 RMK AO2 T01060070
KFMM 250655Z AUTO 09004KT 10SM BKN085 BKN120 12/08 A2996 RMK AO2 LTG DSNT N T01150075
KFMM 250635Z AUTO 06004KT 10SM BKN085 11/07 A2996 RMK AO2 T01130073
KFMM 250615Z AUTO 07005KT 10SM SCT085 SCT110 12/08 A2996 RMK AO2 LTG DSNT N T01150075
KFMM 250555Z AUTO 04006KT 10SM SCT120 12/08 A2996 RMK AO2 T01170076 10165 20116 402570116
KFMM 250515Z AUTO 05008KT 10SM SCT120 12/08 A2994 RMK AO2 LTG DSNT S T01210080
KFMM 250455Z AUTO 06008KT 10SM BKN120 13/08 A2995 RMK AO2 T01250081
KFMM 250435Z AUTO 06008KT 10SM SCT120 13/08 A2994 RMK AO2 T01260082
KFMM 250415Z AUTO 07010KT 10SM CLR 13/08 A2994 RMK AO2 T01290081
KFMM 250355Z AUTO 05009KT 10SM CLR 13/08 A2993 RMK AO2 T01310080
KFMM 250335Z AUTO 08008KT 10SM SCT110 14/08 A2994 RMK AO2 T01400078
KFMM 250315Z AUTO 04010KT 10SM BKN110 15/08 A2995 RMK AO2 T01460083
KFMM 250255Z AUTO 08012KT 10SM BKN100 15/08 A2993 RMK AO2 T01450083
KFMM 250235Z AUTO 08008KT 10SM OVC110 15/08 A2994 RMK AO2 T01490082
KFMM 250215Z AUTO 05008KT 10SM BKN120 14/09 A2993 RMK AO2 T01420088
KFMM 250155Z AUTO 05009KT 10SM SCT120 13/09 A2991 RMK AO2 T01330092
KFMM 250135Z AUTO 07007KT 10SM BKN120 14/09 A2989 RMK AO2 T01370090
KFMM 250115Z AUTO 09009KT 10SM SCT110 14/09 A2988 RMK AO2 T01430091
KFMM 250055Z AUTO 11010KT 10SM CLR 15/10 A2987 RMK AO2 LTG DSNT S T01470096
KFMM 250035Z AUTO 12012KT 10SM SCT120 15/10 A2987 RMK AO2 T01510100
KFMM 250015Z AUTO 12009KT 10SM CLR 16/09 A2988 RMK AO2 T01600091
KFMM 242355Z AUTO 12009KT 10SM CLR 17/10 A2989 RMK AO2 LTG DSNT SE T01660096 10257 20150
KFMM 242335Z AUTO 10008KT 10SM SCT080 SCT110 17/09 A2989 RMK AO2 T01700092
KFMM 242315Z AUTO 33004KT 10SM -RA SCT024 BKN060 OVC110 16/09 A2992 RMK AO2 T01590090
KFMM 242255Z AUTO 28007G27KT 4SM RA SCT017 BKN037 OVC085 16/08 A2995 RMK AO2 LTG DSNT N AND W T01590077
KFMM 242235Z AUTO 23016G21KT 170V240 10SM SCT070 OVC085 22/03 A2990 RMK AO2 LTG DSNT SW T02170028
KFMM 242215Z AUTO 00000KT 10SM OVC110 23/03 A2989 RMK AO2 LTG DSNT N AND SW T02250029
KFMM 242155Z AUTO 14006KT 10SM SCT120 23/03 A2987 RMK AO2 T02310027
KFMM 242135Z AUTO 16007G14KT 10SM CLR 26/03 A2988 RMK AO2 LTG DSNT N T02560025
KFMM 242115Z AUTO 15008G14KT 10SM CLR 25/03 A2988 RMK AO2 T02490027
KFMM 242055Z AUTO 15011G15KT 10SM CLR 25/03 A2989 RMK AO2 T02460033
KFMM 242035Z AUTO 16011G15KT 10SM CLR 24/04 A2990 RMK AO2 T02370037
KFMM 242015Z AUTO 15008KT 10SM CLR 23/04 A2991 RMK AO2 T02280038
KFMM 241955Z AUTO 15006KT 10SM CLR 22/04 A2992 RMK AO2 T02150040
KFMM 241935Z AUTO 17009KT 140V210 10SM CLR 22/04 A2992 RMK AO2 T02220038
KFMM 241915Z AUTO 16004KT 10SM CLR 20/04 A2994 RMK AO2 T02020043
KFMM 241855Z AUTO 15006KT 10SM CLR 21/04 A2993 RMK AO2 T02110042
KFMM 241835Z AUTO 00000KT 10SM CLR 21/04 A2995 RMK AO2 T02070042
KFMM 241815Z AUTO 18004KT 10SM CLR 20/05 A2996 RMK AO2 T01950045
KFMM 241755Z AUTO 18007KT 10SM SCT120 18/05 A2996 RMK AO2 T01830053 10195 20123
KFMM 241735Z AUTO 21008KT 10SM SCT075 SCT090 SCT120 18/05 A2997 RMK AO2 T01830051